Latest Weather Observations for South Johnstone

IDQ60801

Issued at 7:02 pm EST Thursday 19 October 2017 (issued every 30 minutes, with the page automatically refreshed every 10 minutes)

About weather observations | Map of weather stations | Latest weather observations for QLD | Other Formats
Station Details ID: 032037 Name: SOUTH JOHNSTONE EXP STN Lat: -17.61 Lon: 146.00 Height: 18.3 m
Data from the previous 72 hours. | See also: Recent months at South Johnstone
Date/Time
EST
Temp
°C
App
Temp
°C
Dew
Point
°C
Rel
Hum
%
Delta-T
°C
Wind Press
QNH
hPa
Press
MSL
hPa
Rain since
9am
mm
Dir  Spd
km/h
Gust
km/h
Spd
kts
Gust
kts
19/07:00pm 21.5 25.5 20.6 95 0.6 CALM 0 4 0 2 1015.3 - 22.0
19/06:30pm 21.8 26.0 20.9 95 0.6 CALM 0 0 0 0 1015.6 - 22.0
19/06:00pm 22.0 24.8 20.8 93 0.8 SSW 7 11 4 6 1015.1 1015.0 22.0
19/05:30pm 22.3 25.6 20.8 91 1.0 S 4 9 2 5 1014.9 - 22.0
19/05:00pm 22.0 24.9 21.1 95 0.6 SSE 7 11 4 6 1014.7 - 22.0
19/04:30pm 22.0 24.5 21.1 95 0.6 SSE 9 13 5 7 1014.4 - 22.0
19/04:00pm 21.9 24.0 21.0 95 0.6 S 11 19 6 10 1014.1 - 21.8
19/03:30pm 22.2 24.9 21.3 95 0.6 SE 9 19 5 10 1014.2 - 21.0
19/03:00pm 22.8 26.2 21.6 93 0.8 ESE 6 9 3 5 1013.9 1013.8 20.2
19/02:30pm 22.4 25.6 21.3 93 0.7 S 6 9 3 5 1014.1 - 20.2
19/02:00pm 21.9 24.2 20.7 93 0.8 SW 9 15 5 8 1014.1 - 20.2
19/01:30pm 21.3 22.7 20.4 95 0.6 SW 13 19 7 10 1014.2 - 20.2
19/01:00pm 21.2 23.1 20.6 96 0.4 SW 11 20 6 11 1014.3 - 19.8
19/12:30pm 21.1 24.0 20.6 97 0.3 WSW 6 11 3 6 1015.0 - 17.2
19/12:00pm 20.7 24.5 20.1 96 0.4 CALM 0 6 0 3 1015.7 1015.6 14.0
19/11:30am 21.0 24.8 20.1 95 0.6 CALM 0 0 0 0 1015.8 - 7.8
19/11:00am 21.0 24.4 20.1 95 0.6 SSW 2 7 1 4 1015.6 - 7.0
19/10:30am 19.9 21.3 19.6 98 0.2 SSW 11 17 6 9 1015.2 - 7.0
19/10:00am 19.3 22.6 19.0 98 0.2 CALM 0 0 0 0 1016.6 - 4.2
19/09:30am 19.0 21.3 18.5 97 0.3 S 4 7 2 4 1016.1 - 0.8
19/09:00am 18.9 20.6 18.6 98 0.2 ESE 7 9 4 5 1016.0 1015.9 125.8
19/08:30am 18.6 20.2 18.3 98 0.2 SE 7 9 4 5 1015.3 - 124.0
19/08:00am 18.7 20.5 18.2 97 0.3 ESE 6 9 3 5 1015.5 - 121.0
19/07:30am 18.7 21.2 18.2 97 0.3 S 2 7 1 4 1015.6 - 119.6
19/07:00am 18.6 20.7 18.1 97 0.3 SE 4 9 2 5 1015.2 - 118.2
19/06:57am 18.5 20.2 18.0 97 0.3 ESE 6 9 3 5 1015.1 - 118.0
19/06:30am 18.7 20.8 18.0 96 0.4 NE 4 9 2 5 1013.1 - 117.4
19/06:00am 18.7 20.3 17.9 95 0.5 NNW 6 11 3 6 1012.3 1012.2 117.0
19/05:30am 18.2 20.9 17.7 97 0.3 CALM 0 0 0 0 1012.6 - 115.2
19/05:00am 18.3 21.0 17.8 97 0.3 CALM 0 0 0 0 1013.6 - 113.6
19/04:30am 18.1 19.6 17.6 97 0.3 NW 6 20 3 11 1012.9 - 109.4
19/04:00am 18.1 18.2 17.4 96 0.4 W 13 24 7 13 1012.1 - 101.4
19/03:30am 18.6 19.7 17.9 96 0.4 NW 9 17 5 9 1013.6 - 73.4
19/03:00am 21.9 21.8 20.7 93 0.8 SSW 22 32 12 17 1011.6 1011.5 63.0
19/02:30am 21.3 21.6 20.4 95 0.6 S 19 26 10 14 1012.2 - 61.0
19/02:00am 22.1 22.5 21.0 93 0.7 E 20 35 11 19 1012.1 - 49.2
19/01:30am 22.6 24.5 21.4 93 0.8 S 13 24 7 13 1012.4 - 45.6
19/01:00am 22.9 26.0 21.5 92 0.9 S 7 15 4 8 1013.0 - 43.4
19/12:30am 22.6 25.9 21.8 95 0.5 S 7 13 4 7 1013.3 - 43.4
19/12:00am 21.8 25.8 21.3 97 0.3 WSW 2 7 1 4 1013.6 1013.5 43.4
 
Date/Time
EST
Temp
°C
App
Temp
°C
Dew
Point
°C
Rel
Hum
%
Delta-T
°C
Wind Press
QNH
hPa
Press
MSL
hPa
Rain since
9am
mm
Dir  Spd
km/h
Gust
km/h
Spd
kts
Gust
kts
18/11:30pm 22.0 25.7 21.5 97 0.3 SSE 4 11 2 6 1013.8 - 43.0
18/11:00pm 21.8 24.9 21.5 98 0.2 WSW 7 11 4 6 1014.7 - 41.2
18/10:30pm 22.0 26.5 21.5 97 0.3 CALM 0 0 0 0 1015.0 - 41.0
18/10:00pm 21.9 25.2 21.4 97 0.3 W 6 7 3 4 1014.9 - 39.8
18/09:30pm 22.0 25.3 21.5 97 0.3 WSW 6 11 3 6 1014.6 - 39.8
18/09:00pm 22.0 26.5 21.5 97 0.3 CALM 0 0 0 0 1014.3 1014.2 38.0
18/08:30pm 22.1 26.2 21.6 97 0.3 WSW 2 7 1 4 1013.3 - 38.0
18/08:00pm 22.1 25.5 21.6 97 0.3 W 6 11 3 6 1013.2 - 38.0
18/07:30pm 22.4 27.0 21.8 96 0.4 CALM 0 0 0 0 1013.0 - 38.0
18/07:00pm 22.4 26.9 21.6 95 0.5 CALM 0 0 0 0 1012.4 - 38.0
18/06:30pm 22.9 26.6 21.5 92 0.9 E 4 9 2 5 1012.1 - 38.0
18/06:00pm 22.9 25.7 21.5 92 0.9 ESE 9 15 5 8 1011.2 1011.1 38.0
18/05:30pm 22.5 27.1 21.7 95 0.5 CALM 0 7 0 4 1011.5 - 38.0
18/05:00pm 22.9 27.5 21.8 93 0.7 CALM 0 6 0 3 1011.1 - 33.0
18/04:57pm 22.8 27.4 21.7 93 0.7 CALM 0 0 0 0 1010.9 - 33.0
18/04:30pm 23.4 24.9 21.3 88 1.4 S 15 24 8 13 1008.9 - 33.0
18/04:00pm 22.3 25.4 21.4 95 0.6 E 7 13 4 7 1010.7 - 32.8
18/03:30pm 21.8 26.2 21.3 97 0.3 CALM 0 0 0 0 1010.4 - 30.8
18/03:00pm 21.6 24.7 21.0 96 0.4 SW 6 11 3 6 1010.3 1010.2 30.0
18/02:30pm 21.7 24.6 21.1 96 0.4 NE 7 13 4 7 1010.9 - 26.0
18/02:00pm 22.2 25.2 21.3 95 0.6 SSW 7 15 4 8 1010.2 - 17.0
18/01:30pm 22.6 25.1 21.8 95 0.5 SW 11 22 6 12 1010.4 - 10.8
18/01:00pm 23.1 26.6 22.2 95 0.6 ESE 7 13 4 7 1010.7 - 5.2
18/12:30pm 23.6 26.4 21.5 88 1.4 S 9 13 5 7 1011.2 - 1.2
18/12:00pm 23.7 26.7 21.9 90 1.2 SSE 9 13 5 7 1012.3 1012.2 1.0
18/11:30am 23.3 27.2 21.8 91 1.0 W 4 7 2 4 1012.4 - 1.0
18/11:00am 23.0 26.6 21.3 90 1.1 SSE 4 9 2 5 1012.4 - 0.8
18/10:30am 23.8 26.6 20.4 81 2.2 SSE 6 9 3 5 1013.0 - 0.0
18/10:00am 23.6 26.2 20.4 82 2.1 SSW 7 13 4 7 1013.1 - 0.0
18/09:30am 23.6 26.3 20.7 84 1.9 SW 7 15 4 8 1013.5 - 0.0
18/09:00am 22.3 25.4 21.1 93 0.8 SSE 6 13 3 7 1013.4 1013.3 23.0
18/08:30am 22.3 24.6 20.6 90 1.1 WSW 9 13 5 7 1012.9 - 23.0
18/08:00am 21.7 24.1 20.1 91 1.0 SW 7 11 4 6 1012.7 - 23.0
18/07:30am 20.9 23.5 20.1 95 0.5 WSW 6 13 3 7 1012.1 - 23.0
18/07:00am 20.8 22.8 20.0 95 0.5 WSW 9 13 5 7 1011.7 - 23.0
18/06:30am 20.3 22.2 19.7 96 0.4 WSW 9 13 5 7 1010.9 - 23.0
18/06:00am 20.4 24.0 19.8 96 0.4 CALM 0 7 0 4 1010.7 1010.6 23.0
18/05:30am 20.3 23.2 19.8 97 0.3 SW 4 9 2 5 1010.6 - 23.0
18/05:00am 20.4 24.1 19.9 97 0.3 CALM 0 0 0 0 1010.5 - 23.0
18/04:30am 20.3 23.9 19.8 97 0.3 CALM 0 0 0 0 1010.5 - 23.0
18/04:00am 20.2 23.0 19.7 97 0.3 SSW 4 7 2 4 1010.1 - 23.0
18/03:30am 20.3 23.1 19.7 96 0.4 SW 4 9 2 5 1009.9 - 23.0
18/03:00am 20.2 22.3 19.4 95 0.5 SW 7 13 4 7 1009.8 1009.7 23.0
18/02:30am 20.1 22.3 19.5 96 0.4 WSW 7 13 4 7 1010.0 - 23.0
18/02:00am 20.1 22.8 19.5 96 0.4 WSW 4 11 2 6 1010.1 - 22.2
18/01:30am 20.2 23.0 19.7 97 0.3 W 4 7 2 4 1011.2 - 20.8
18/01:00am 20.2 22.6 19.7 97 0.3 SW 6 7 3 4 1011.1 - 20.8
18/12:30am 20.3 23.1 19.7 96 0.4 SW 4 9 2 5 1011.7 - 19.2
18/12:00am 20.6 21.9 19.3 92 0.8 SSW 11 17 6 9 1011.9 1011.8 18.0
 
Date/Time
EST
Temp
°C
App
Temp
°C
Dew
Point
°C
Rel
Hum
%
Delta-T
°C
Wind Press
QNH
hPa
Press
MSL
hPa
Rain since
9am
mm
Dir  Spd
km/h
Gust
km/h
Spd
kts
Gust
kts
17/11:30pm 20.7 24.3 19.8 95 0.6 CALM 0 7 0 4 1012.4 - 16.4
17/11:00pm 21.0 23.8 19.7 92 0.8 SW 4 7 2 4 1012.8 - 15.6
17/10:30pm 21.4 24.0 20.5 95 0.6 WSW 7 13 4 7 1013.4 - 11.8
17/10:00pm 21.5 24.5 20.1 92 0.9 SSW 4 13 2 7 1012.4 - 9.6
17/09:30pm 21.5 23.8 20.7 95 0.5 SSW 9 17 5 9 1011.7 - 8.0
17/09:00pm 21.7 25.1 20.9 95 0.5 SW 4 9 2 5 1012.2 1012.1 7.0
17/08:30pm 21.9 26.3 21.3 96 0.4 CALM 0 0 0 0 1011.8 - 6.2
17/08:00pm 21.9 25.5 21.3 96 0.4 SW 4 11 2 6 1011.6 - 5.0
17/07:30pm 22.0 24.7 21.4 96 0.4 WSW 9 13 5 7 1011.4 - 4.2
17/07:00pm 22.3 26.7 21.4 95 0.6 CALM 0 4 0 2 1011.3 - 3.2
17/06:30pm 22.3 25.5 21.2 93 0.7 SSW 6 11 3 6 1010.9 - 2.2
17/06:00pm 22.8 26.0 21.3 91 1.0 SW 6 9 3 5 1011.0 1010.9 1.8
17/05:30pm 23.2 27.5 21.2 88 1.3 CALM 0 7 0 4 1010.4 - 1.6
17/05:00pm 23.6 26.6 20.8 84 1.8 S 6 9 3 5 1010.0 - 1.4
17/04:30pm 23.8 26.6 20.9 84 1.9 SE 7 13 4 7 1009.6 - 1.4
17/04:00pm 24.1 26.8 20.7 81 2.2 ESE 7 11 4 6 1009.3 - 1.4
17/03:30pm 24.3 27.2 21.0 82 2.2 SSE 7 11 4 6 1009.5 - 1.4
17/03:00pm 23.8 26.1 19.9 79 2.5 S 7 9 4 5 1009.4 1009.3 1.4
17/02:30pm 23.9 27.2 21.5 86 1.6 SSE 6 9 3 5 1009.6 - 1.2
17/02:00pm 24.1 28.3 20.9 82 2.1 CALM 0 0 0 0 1009.6 - 1.2
17/01:30pm 24.4 28.1 21.4 83 2.0 NNE 4 9 2 5 1010.3 - 1.2
17/01:00pm 23.6 27.9 21.2 86 1.6 CALM 0 0 0 0 1010.8 - 1.2
17/12:30pm 22.2 25.5 20.7 91 1.0 NNW 4 9 2 5 1011.4 - 1.2
17/12:00pm 23.7 28.1 21.4 87 1.5 CALM 0 0 0 0 1012.1 1012.0 1.0
17/11:30am 23.4 27.4 21.4 88 1.3 SSW 2 6 1 3 1012.5 - 0.4
17/11:00am 23.7 28.0 21.1 85 1.7 CALM 0 6 0 3 1012.6 - 0.0
17/10:30am 23.7 27.4 20.8 84 1.9 NW 2 6 1 3 1013.0 - 0.0
17/10:00am 23.4 27.8 21.4 88 1.3 CALM 0 0 0 0 1013.3 - 0.0
17/09:30am 23.0 25.9 21.0 88 1.3 SW 7 9 4 5 1013.2 - 0.0
17/09:00am 22.4 26.5 21.5 95 0.6 W 2 9 1 5 1013.3 1013.2 21.0
17/08:30am 22.0 25.9 21.1 95 0.6 W 2 9 1 5 1013.1 - 21.0
17/08:00am 21.6 25.8 21.0 96 0.4 CALM 0 0 0 0 1012.5 - 21.0
17/07:30am 21.3 25.4 20.8 97 0.3 CALM 0 0 0 0 1012.5 - 21.0
17/07:00am 21.1 25.1 20.5 96 0.4 CALM 0 0 0 0 1011.9 - 20.8
17/06:30am 20.9 24.0 20.3 96 0.4 SE 4 9 2 5 1011.3 - 20.4
17/06:00am 21.1 25.1 20.5 96 0.4 CALM 0 0 0 0 1010.9 1010.8 16.8
17/05:30am 21.1 25.1 20.5 96 0.4 CALM 0 0 0 0 1010.6 - 15.6
17/05:00am 21.0 24.0 20.1 95 0.6 W 4 9 2 5 1010.2 - 15.4
17/04:30am 21.0 23.3 19.9 93 0.7 SW 7 11 4 6 1010.0 - 15.4
17/04:00am 20.9 23.9 20.1 95 0.5 WSW 4 9 2 5 1009.8 - 15.4
17/03:30am 20.9 23.5 20.1 95 0.5 WSW 6 9 3 5 1009.4 - 15.4
17/03:00am 20.9 24.8 20.3 96 0.4 CALM 0 0 0 0 1009.7 1009.6 15.4
17/02:30am 21.0 24.8 20.2 95 0.5 CALM 0 0 0 0 1009.7 - 15.4
17/02:00am 21.2 24.4 20.4 95 0.5 W 4 9 2 5 1010.3 - 15.4
17/01:30am 21.4 24.1 20.6 95 0.5 SSW 7 13 4 7 1010.8 - 15.4
17/01:00am 21.5 24.4 20.7 95 0.5 W 6 9 3 5 1011.4 - 15.4
17/12:30am 21.7 26.0 21.1 96 0.4 CALM 0 6 0 3 1012.0 - 14.8
17/12:00am 21.7 25.8 20.8 95 0.6 CALM 0 0 0 0 1012.3 1012.2 14.6
 
Date/Time
EST
Temp
°C
App
Temp
°C
Dew
Point
°C
Rel
Hum
%
Delta-T
°C
Wind Press
QNH
hPa
Press
MSL
hPa
Rain since
9am
mm
Dir  Spd
km/h
Gust
km/h
Spd
kts
Gust
kts
16/11:30pm 21.8 25.0 20.6 93 0.8 S 4 9 2 5 1012.5 - 14.6
16/11:00pm 21.5 24.4 20.6 95 0.6 SW 6 9 3 5 1012.2 - 14.6
16/10:30pm 21.5 24.4 20.7 95 0.5 WSW 6 13 3 7 1012.3 - 14.6
16/10:00pm 21.8 25.2 20.9 95 0.6 WSW 4 11 2 6 1012.5 - 14.6
16/09:30pm 21.8 24.5 20.6 93 0.8 SW 7 11 4 6 1012.6 - 14.6
16/09:00pm 21.4 23.6 20.5 95 0.6 SW 9 13 5 7 1012.6 1012.5 14.6
16/08:30pm 21.3 24.1 20.5 95 0.5 SSE 6 9 3 5 1011.6 - 14.6
16/08:00pm 21.0 23.1 20.2 95 0.5 SSE 9 13 5 7 1011.3 - 14.6
16/07:30pm 21.4 21.9 20.0 92 0.9 SSE 17 28 9 15 1011.4 - 13.0

Other Formats:

Comma delimited format used in spreadsheet applications
http://www.bom.gov.au/fwo/IDQ60801/IDQ60801.95292.axf

JavaScript Object Notation format (JSON) in row-major order
http://www.bom.gov.au/fwo/IDQ60801/IDQ60801.95292.json